Time;durP1;ratioP1;P1;durP2;ratioP2;P2;SDS_P1;SDS_P2;PMS_P1;PMS_P2;Temp;Humidity;BMP_temperature;BMP_pressure;BME280_temperature;BME280_humidity;BME280_pressure;Samples;Min_cycle;Max_cycle;Signal;HPM_P1;HPM_P2
2021/07/18 00:01:18;;;;;;;5.20;4.72;;;21.40;76.60;;;;;;5054644;28;20462;-31
2021/07/18 00:03:44;;;;;;;6.82;4.85;;;21.40;76.80;;;;;;5055514;28;20025;-31
2021/07/18 00:06:10;;;;;;;4.93;4.53;;;21.40;76.70;;;;;;5056561;28;20122;-25
2021/07/18 00:08:35;;;;;;;6.07;5.13;;;21.40;76.90;;;;;;5056621;28;20071;-32
2021/07/18 00:11:01;;;;;;;5.50;5.00;;;21.40;76.80;;;;;;5056078;28;20052;-32
2021/07/18 00:13:26;;;;;;;4.97;4.57;;;21.40;77.60;;;;;;5056049;28;20078;-28
2021/07/18 00:15:52;;;;;;;4.90;4.50;;;21.40;76.90;;;;;;5053779;28;20047;-33
2021/07/18 00:18:17;;;;;;;5.55;5.05;;;21.30;77.00;;;;;;5056182;28;20029;-30
2021/07/18 00:20:43;;;;;;;4.85;4.32;;;21.30;77.00;;;;;;5059520;28;20040;-27
2021/07/18 00:23:09;;;;;;;5.95;4.88;;;21.30;77.20;;;;;;5057743;28;20473;-29
2021/07/18 00:25:34;;;;;;;4.70;4.30;;;21.30;77.20;;;;;;5068018;28;20131;-30
2021/07/18 00:28:00;;;;;;;5.93;5.00;;;21.30;77.10;;;;;;5051405;28;20017;-28
2021/07/18 00:30:26;;;;;;;6.53;5.60;;;21.20;77.20;;;;;;5055017;28;20021;-30
2021/07/18 00:32:52;;;;;;;5.05;4.53;;;21.20;77.50;;;;;;5056189;28;20029;-33
2021/07/18 00:35:17;;;;;;;7.45;5.10;;;21.20;77.30;;;;;;5052347;28;20112;-27
2021/07/18 00:37:43;;;;;;;6.18;4.97;;;21.10;77.30;;;;;;5056434;28;20024;-28
2021/07/18 00:40:09;;;;;;;4.85;4.40;;;21.10;77.40;;;;;;5052546;28;20155;-29
2021/07/18 00:42:35;;;;;;;5.10;4.60;;;21.10;77.30;;;;;;5050964;28;20498;-30
2021/07/18 00:45:01;;;;;;;4.60;4.20;;;21.10;77.20;;;;;;5068762;28;20017;-28
2021/07/18 00:47:27;;;;;;;6.32;4.90;;;21.20;77.00;;;;;;5068502;28;20115;-26
2021/07/18 00:49:53;;;;;;;5.53;5.00;;;21.00;77.50;;;;;;5067081;28;20112;-26
2021/07/18 00:52:18;;;;;;;5.47;4.38;;;21.00;78.00;;;;;;5061019;28;20048;-33
2021/07/18 00:54:44;;;;;;;5.30;4.80;;;21.00;77.90;;;;;;5058533;28;20032;-26
2021/07/18 00:57:10;;;;;;;5.40;4.90;;;21.00;78.50;;;;;;5042077;28;20405;-27
2021/07/18 00:59:35;;;;;;;6.10;4.80;;;20.90;78.00;;;;;;5041474;28;20374;-27
2021/07/18 01:02:01;;;;;;;4.55;4.20;;;21.00;77.60;;;;;;5065444;28;20033;-29
2021/07/18 01:04:27;;;;;;;4.07;3.78;;;21.10;77.30;;;;;;5053583;28;20459;-30
2021/07/18 01:06:53;;;;;;;4.95;4.55;;;21.00;77.60;;;;;;5056894;28;20033;-26
2021/07/18 01:09:19;;;;;;;5.72;5.00;;;20.90;78.60;;;;;;5058463;28;20028;-30
2021/07/18 01:11:44;;;;;;;4.50;4.20;;;20.90;77.90;;;;;;5041284;28;20041;-27
2021/07/18 01:14:10;;;;;;;5.05;4.55;;;20.80;78.10;;;;;;5060914;28;20021;-28
2021/07/18 01:16:35;;;;;;;5.95;4.80;;;20.90;78.00;;;;;;5050751;28;20033;-29
2021/07/18 01:19:01;;;;;;;5.78;4.43;;;20.80;77.80;;;;;;5053649;28;20532;-27
2021/07/18 01:21:26;;;;;;;4.50;4.10;;;20.80;78.10;;;;;;5063469;28;20037;-29
2021/07/18 01:23:53;;;;;;;5.10;4.35;;;20.80;78.10;;;;;;5066411;28;20029;-27
2021/07/18 01:26:18;;;;;;;5.40;4.32;;;20.80;78.20;;;;;;5059519;28;20378;-35
2021/07/18 01:28:45;;;;;;;4.95;4.40;;;20.80;78.10;;;;;;5059150;28;20476;-29
2021/07/18 01:31:11;;;;;;;4.60;3.88;;;20.80;77.80;;;;;;5056128;28;20028;-27
2021/07/18 01:33:36;;;;;;;4.57;4.00;;;20.80;77.80;;;;;;5070097;28;20028;-29
2021/07/18 01:36:02;;;;;;;5.95;4.43;;;20.80;77.80;;;;;;5067950;28;20440;-26
2021/07/18 01:38:27;;;;;;;4.30;3.95;;;20.70;78.10;;;;;;5045519;28;20021;-25
2021/07/18 01:40:53;;;;;;;5.22;4.32;;;20.70;78.00;;;;;;5058570;28;20520;-28
2021/07/18 01:43:19;;;;;;;4.50;4.10;;;20.70;78.00;;;;;;5038314;28;20070;-30
2021/07/18 01:45:44;;;;;;;6.00;4.57;;;20.70;78.30;;;;;;5070261;28;20486;-27
2021/07/18 01:48:10;;;;;;;5.63;4.07;;;20.70;78.00;;;;;;5068348;28;20021;-28
2021/07/18 01:50:35;;;;;;;3.95;3.65;;;20.70;78.10;;;;;;5065009;28;20108;-30
2021/07/18 01:53:02;;;;;;;4.72;3.90;;;20.80;77.70;;;;;;5057918;28;20021;-28
2021/07/18 01:55:28;;;;;;;4.85;3.80;;;20.70;77.80;;;;;;5051269;28;20025;-34
2021/07/18 01:57:54;;;;;;;4.15;3.80;;;20.70;77.90;;;;;;5070126;28;20035;-28
2021/07/18 02:00:19;;;;;;;3.80;3.50;;;20.70;77.80;;;;;;5055498;28;20112;-26
2021/07/18 02:02:46;;;;;;;5.47;4.10;;;20.80;77.50;;;;;;5064613;28;20115;-27
2021/07/18 02:05:15;;;;;;;4.55;4.15;;;20.70;77.60;;;;;;5067166;28;20451;-31
2021/07/18 02:07:44;;;;;;;4.82;4.40;;;20.70;77.70;;;;;;5066744;28;20078;-26
2021/07/18 02:10:10;;;;;;;4.68;4.28;;;20.70;78.00;;;;;;5064219;28;20020;-29
2021/07/18 02:12:36;;;;;;;6.05;4.50;;;20.60;78.80;;;;;;5056961;28;20559;-27
2021/07/18 02:15:04;;;;;;;4.32;4.03;;;20.60;78.30;;;;;;5040743;28;20115;-29
2021/07/18 02:17:29;;;;;;;5.10;3.92;;;20.60;78.40;;;;;;5058324;28;20024;-27
2021/07/18 02:19:55;;;;;;;4.25;3.85;;;20.60;78.50;;;;;;5057798;28;20028;-28
2021/07/18 02:22:37;;;;;;;4.57;4.18;;;20.50;78.50;;;;;;5046740;28;20028;-28
2021/07/18 02:25:05;;;;;;;5.15;4.35;;;20.50;78.60;;;;;;5037541;28;20493;-28
2021/07/18 02:27:30;;;;;;;4.55;4.10;;;20.50;78.60;;;;;;5068609;28;20056;-30
2021/07/18 02:29:56;;;;;;;4.20;3.78;;;20.50;78.60;;;;;;5065768;28;20052;-28
2021/07/18 02:32:21;;;;;;;6.70;4.05;;;20.40;78.90;;;;;;5064189;28;20025;-27
2021/07/18 02:34:47;;;;;;;5.93;4.97;;;20.40;78.80;;;;;;5066266;28;20029;-30
2021/07/18 02:37:12;;;;;;;4.45;4.05;;;20.50;78.40;;;;;;5070192;28;20031;-29
2021/07/18 02:39:38;;;;;;;4.68;4.28;;;20.40;78.70;;;;;;5066479;28;20025;-27
2021/07/18 02:42:04;;;;;;;4.75;4.32;;;20.40;78.70;;;;;;5066736;28;20037;-27
2021/07/18 02:44:30;;;;;;;4.53;4.22;;;20.50;78.60;;;;;;5066247;28;20021;-32
2021/07/18 02:46:55;;;;;;;4.43;4.03;;;20.50;78.30;;;;;;5066165;28;20564;-27
2021/07/18 02:49:21;;;;;;;4.45;4.00;;;20.40;78.80;;;;;;5050992;28;20025;-28
2021/07/18 02:51:46;;;;;;;3.85;3.55;;;20.40;78.60;;;;;;5063123;28;20107;-35
2021/07/18 02:54:12;;;;;;;5.63;4.43;;;20.40;78.60;;;;;;5066966;28;20405;-29
2021/07/18 02:56:37;;;;;;;4.70;4.10;;;20.40;78.70;;;;;;5060931;28;20029;-27
2021/07/18 02:59:03;;;;;;;4.50;4.10;;;20.40;78.80;;;;;;5057307;28;20044;-26
2021/07/18 03:01:29;;;;;;;4.35;3.95;;;20.40;78.50;;;;;;5065704;28;20553;-30
2021/07/18 03:03:54;;;;;;;4.32;3.92;;;20.40;78.70;;;;;;5053806;28;20025;-29
2021/07/18 03:06:20;;;;;;;4.53;4.13;;;20.30;78.80;;;;;;5066794;28;20024;-27
2021/07/18 03:08:45;;;;;;;4.45;4.05;;;20.30;79.00;;;;;;5065597;28;20028;-28
2021/07/18 03:11:11;;;;;;;4.70;4.30;;;20.20;79.00;;;;;;5063710;28;20045;-29
2021/07/18 03:13:37;;;;;;;4.88;4.40;;;20.20;79.00;;;;;;5054272;28;20032;-29
2021/07/18 03:16:02;;;;;;;4.00;3.70;;;20.30;78.60;;;;;;5069655;28;20029;-29
2021/07/18 03:18:28;;;;;;;3.83;3.50;;;20.40;78.30;;;;;;5067617;28;20024;-27
2021/07/18 03:20:54;;;;;;;4.80;4.50;;;20.30;78.50;;;;;;5061291;28;20040;-26
2021/07/18 03:23:19;;;;;;;4.15;3.83;;;20.20;79.00;;;;;;5059821;28;20034;-27
2021/07/18 03:25:45;;;;;;;4.63;4.15;;;20.20;79.50;;;;;;5065272;28;20048;-27
2021/07/18 03:28:10;;;;;;;4.65;3.67;;;20.30;78.70;;;;;;5068240;28;20048;-29
2021/07/18 03:30:36;;;;;;;3.80;3.50;;;20.20;79.60;;;;;;5055377;28;20025;-31
2021/07/18 03:33:01;;;;;;;4.82;3.72;;;20.20;78.80;;;;;;5057344;28;20116;-29
2021/07/18 03:35:27;;;;;;;4.00;3.67;;;20.20;78.70;;;;;;5055690;28;20478;-28
2021/07/18 03:37:52;;;;;;;3.92;3.17;;;20.20;78.60;;;;;;5057138;28;20032;-30
2021/07/18 03:40:18;;;;;;;3.83;3.53;;;20.30;78.30;;;;;;5053412;28;20500;-28
2021/07/18 03:42:44;;;;;;;3.50;3.20;;;20.20;78.70;;;;;;5054763;28;20036;-29
2021/07/18 03:45:11;;;;;;;3.78;3.47;;;20.20;78.70;;;;;;5066240;28;20032;-29
2021/07/18 03:47:36;;;;;;;4.82;3.78;;;20.20;78.50;;;;;;5057329;28;20048;-26
2021/07/18 03:50:03;;;;;;;3.60;3.30;;;20.20;78.80;;;;;;5055863;28;20529;-29
2021/07/18 03:52:29;;;;;;;4.20;3.88;;;20.10;78.70;;;;;;5063250;28;20021;-28
2021/07/18 03:54:54;;;;;;;4.22;3.38;;;20.20;78.60;;;;;;5067994;28;20031;-30
2021/07/18 03:57:20;;;;;;;3.72;3.42;;;20.20;78.80;;;;;;5067292;28;20075;-27
2021/07/18 03:59:45;;;;;;;3.53;3.15;;;20.20;78.60;;;;;;5046481;28;20027;-27
2021/07/18 04:02:11;;;;;;;3.53;3.33;;;20.10;78.70;;;;;;5064685;28;20516;-27
2021/07/18 04:04:37;;;;;;;3.70;3.38;;;20.10;78.80;;;;;;5065115;28;20478;-28
2021/07/18 04:07:03;;;;;;;3.70;3.40;;;20.10;78.90;;;;;;5068584;28;20498;-28
2021/07/18 04:09:29;;;;;;;3.95;3.28;;;20.10;78.80;;;;;;5055393;28;20025;-28
2021/07/18 04:11:54;;;;;;;3.83;3.53;;;20.00;78.70;;;;;;5056436;28;20060;-27
2021/07/18 04:14:20;;;;;;;3.30;3.08;;;20.10;78.60;;;;;;5056389;28;20052;-29
2021/07/18 04:16:46;;;;;;;9.00;3.40;;;20.00;79.00;;;;;;5056486;28;20051;-28
2021/07/18 04:19:11;;;;;;;3.80;2.97;;;20.00;78.70;;;;;;5056107;28;20095;-27
2021/07/18 04:21:37;;;;;;;3.92;3.00;;;20.00;78.70;;;;;;5055857;28;20045;-26
2021/07/18 04:24:03;;;;;;;3.53;3.33;;;20.00;79.60;;;;;;5059732;28;20035;-36
2021/07/18 04:26:28;;;;;;;3.75;3.17;;;20.00;78.90;;;;;;5060006;28;20037;-33
2021/07/18 04:28:54;;;;;;;3.80;3.42;;;20.00;78.90;;;;;;5060255;28;20028;-27
2021/07/18 04:31:19;;;;;;;3.63;3.33;;;20.00;78.60;;;;;;5057478;28;20025;-27
2021/07/18 04:33:45;;;;;;;4.28;3.30;;;20.00;78.40;;;;;;5057962;28;20020;-27
2021/07/18 04:36:11;;;;;;;3.10;2.88;;;20.00;78.70;;;;;;5069752;28;20056;-27
2021/07/18 04:38:36;;;;;;;4.10;3.63;;;20.00;78.60;;;;;;5068506;28;20023;-28
2021/07/18 04:41:02;;;;;;;4.57;3.97;;;20.00;78.70;;;;;;5066974;28;20044;-26
2021/07/18 04:43:28;;;;;;;3.70;3.35;;;19.90;78.80;;;;;;5070392;28;20120;-28
2021/07/18 04:45:53;;;;;;;3.55;3.25;;;20.00;78.60;;;;;;5071793;28;20506;-32
2021/07/18 04:48:19;;;;;;;4.15;3.35;;;20.00;78.80;;;;;;5060423;28;20021;-28
2021/07/18 04:50:46;;;;;;;3.97;3.67;;;20.00;78.90;;;;;;5059551;28;20028;-29
2021/07/18 04:53:12;;;;;;;3.00;2.80;;;19.90;78.70;;;;;;5061789;28;20017;-32
2021/07/18 04:55:37;;;;;;;4.07;3.30;;;19.90;78.80;;;;;;5064830;28;20063;-28
2021/07/18 04:58:03;;;;;;;3.42;3.13;;;19.90;78.80;;;;;;5066303;28;20108;-28
2021/07/18 05:00:29;;;;;;;3.25;3.05;;;19.90;78.70;;;;;;5066272;28;20374;-30
2021/07/18 05:02:54;;;;;;;4.88;3.17;;;19.90;78.50;;;;;;5069184;28;20078;-33
2021/07/18 05:05:20;;;;;;;3.13;2.85;;;19.90;78.70;;;;;;5069436;28;20054;-30
2021/07/18 05:07:53;;;;;;;2.80;2.60;;;19.90;78.90;;;;;;5069471;28;20025;-33
2021/07/18 05:10:24;;;;;;;4.20;3.05;;;19.90;79.10;;;;;;5067712;28;20044;-28
2021/07/18 05:12:50;;;;;;;3.30;3.10;;;19.90;79.80;;;;;;5067942;28;20070;-32
2021/07/18 05:15:16;;;;;;;3.72;3.40;;;19.80;79.20;;;;;;5057580;28;20118;-28
2021/07/18 05:17:42;;;;;;;3.70;2.90;;;19.90;79.30;;;;;;5057980;28;20056;-26
2021/07/18 05:20:08;;;;;;;3.10;2.90;;;19.90;79.60;;;;;;5059922;28;20032;-31
2021/07/18 05:22:34;;;;;;;3.60;3.22;;;19.80;79.80;;;;;;5067631;28;20339;-28
2021/07/18 05:25:00;;;;;;;3.25;3.03;;;19.80;79.90;;;;;;5070253;28;20152;-29
2021/07/18 05:27:26;;;;;;;3.38;3.08;;;19.80;79.70;;;;;;5057267;28;20021;-26
2021/07/18 05:29:52;;;;;;;3.65;3.35;;;19.80;79.80;;;;;;5054063;28;20485;-28
2021/07/18 05:32:17;;;;;;;3.22;3.03;;;19.80;79.80;;;;;;5054522;28;20536;-27
2021/07/18 05:34:43;;;;;;;3.42;3.13;;;19.80;79.90;;;;;;5058292;28;20027;-27
2021/07/18 05:37:08;;;;;;;4.95;3.65;;;19.90;79.90;;;;;;5055267;28;20035;-29
2021/07/18 05:39:34;;;;;;;3.30;3.10;;;19.90;79.80;;;;;;5050220;28;20032;-31
2021/07/18 05:41:59;;;;;;;3.72;3.15;;;19.90;79.70;;;;;;5066250;28;20048;-28
2021/07/18 05:44:26;;;;;;;3.35;3.13;;;19.90;79.70;;;;;;5066570;28;20020;-34
2021/07/18 05:46:52;;;;;;;3.33;3.05;;;19.90;79.90;;;;;;5067429;28;20029;-27
2021/07/18 05:49:17;;;;;;;3.58;3.28;;;19.90;79.90;;;;;;5054494;28;20091;-28
2021/07/18 05:51:43;;;;;;;4.45;3.95;;;19.90;80.20;;;;;;5055728;28;20043;-28
2021/07/18 05:54:08;;;;;;;3.72;3.42;;;19.90;80.30;;;;;;5057915;28;20025;-25
2021/07/18 05:56:34;;;;;;;3.90;3.63;;;19.90;80.10;;;;;;5061702;28;20489;-31
2021/07/18 05:58:59;;;;;;;3.85;3.55;;;19.90;80.60;;;;;;5046248;28;20017;-27
2021/07/18 06:01:25;;;;;;;3.33;3.10;;;20.00;80.40;;;;;;5061089;28;20025;-28
2021/07/18 06:03:51;;;;;;;3.70;3.33;;;20.00;80.30;;;;;;5069838;28;20023;-27
2021/07/18 06:06:16;;;;;;;3.78;3.47;;;20.00;80.10;;;;;;5056766;28;20401;-28
2021/07/18 06:08:42;;;;;;;3.83;3.30;;;20.00;80.40;;;;;;5064500;28;20024;-30
2021/07/18 06:11:07;;;;;;;3.83;3.53;;;20.00;80.30;;;;;;5025804;28;1101332;-27
2021/07/18 06:13:33;;;;;;;3.58;3.30;;;20.00;80.80;;;;;;5057720;28;20108;-32
2021/07/18 06:15:58;;;;;;;3.65;3.35;;;20.00;80.80;;;;;;5055116;28;20100;-25
2021/07/18 06:18:24;;;;;;;3.60;3.30;;;20.10;81.10;;;;;;5068660;28;20033;-28
2021/07/18 06:20:49;;;;;;;3.80;3.50;;;20.00;81.20;;;;;;5067172;28;20120;-25
2021/07/18 06:23:15;;;;;;;3.08;2.88;;;20.00;81.50;;;;;;5066790;28;20397;-26
2021/07/18 06:25:41;;;;;;;3.05;2.85;;;20.10;81.20;;;;;;5069678;28;20111;-30
2021/07/18 06:28:06;;;;;;;3.03;2.83;;;20.10;81.80;;;;;;5053546;28;20051;-29
2021/07/18 06:30:32;;;;;;;3.28;2.97;;;20.10;82.00;;;;;;5056697;28;20022;-27
2021/07/18 06:32:57;;;;;;;3.30;3.00;;;20.10;82.00;;;;;;5058229;28;20495;-28
2021/07/18 06:35:23;;;;;;;3.22;3.03;;;20.10;82.10;;;;;;5046644;28;20021;-28
2021/07/18 06:37:48;;;;;;;3.22;2.95;;;20.20;82.20;;;;;;5066257;28;20028;-31
2021/07/18 06:40:14;;;;;;;2.95;2.75;;;20.20;82.10;;;;;;5051024;28;20021;-30
2021/07/18 06:42:40;;;;;;;2.90;2.70;;;20.20;82.10;;;;;;5054101;28;20032;-31
2021/07/18 06:45:06;;;;;;;3.50;2.85;;;20.20;81.70;;;;;;5062703;28;20032;-27
2021/07/18 06:47:31;;;;;;;3.20;2.90;;;20.30;81.80;;;;;;5063323;28;20166;-26
2021/07/18 06:49:57;;;;;;;4.97;3.67;;;20.30;81.80;;;;;;5066194;28;20647;-27
2021/07/18 06:52:26;;;;;;;6.50;3.25;;;20.30;82.10;;;;;;5056704;28;20021;-28
2021/07/18 06:54:51;;;;;;;3.40;2.97;;;20.40;82.80;;;;;;5054851;28;20032;-28
2021/07/18 06:57:17;;;;;;;3.03;2.78;;;20.40;81.90;;;;;;5049889;28;20025;-27
2021/07/18 06:59:43;;;;;;;3.25;2.95;;;20.40;82.60;;;;;;5063811;28;20028;-30
2021/07/18 07:02:09;;;;;;;3.00;2.80;;;20.40;81.90;;;;;;5065835;28;20501;-32
2021/07/18 07:04:34;;;;;;;2.95;2.58;;;20.50;81.70;;;;;;5064032;28;20021;-29
2021/07/18 07:07:00;;;;;;;2.83;2.63;;;20.60;81.50;;;;;;5054083;28;20742;-30
2021/07/18 07:09:25;;;;;;;2.78;2.42;;;20.60;80.90;;;;;;5067288;28;20033;-28
2021/07/18 07:11:51;;;;;;;2.70;2.10;;;20.70;80.80;;;;;;5066466;28;20051;-26
2021/07/18 07:14:17;;;;;;;2.63;2.42;;;20.80;81.10;;;;;;5065549;28;20475;-26
2021/07/18 07:16:42;;;;;;;2.80;2.60;;;20.80;80.90;;;;;;5047865;28;20070;-29
2021/07/18 07:19:10;;;;;;;2.65;2.45;;;20.80;80.10;;;;;;5069739;28;20082;-30
2021/07/18 07:21:35;;;;;;;2.80;2.55;;;20.90;80.50;;;;;;5067775;28;20082;-29
2021/07/18 07:24:01;;;;;;;2.28;2.17;;;20.90;80.10;;;;;;5057677;28;20432;-32
2021/07/18 07:26:27;;;;;;;2.63;2.42;;;20.90;79.90;;;;;;5058766;28;20027;-33
2021/07/18 07:28:52;;;;;;;2.83;2.13;;;21.00;79.20;;;;;;5060377;28;20029;-28
2021/07/18 07:31:18;;;;;;;2.65;2.53;;;21.00;79.40;;;;;;5068753;28;20024;-29
2021/07/18 07:33:43;;;;;;;2.60;2.28;;;21.10;78.50;;;;;;5067247;28;20031;-29
2021/07/18 07:36:09;;;;;;;3.28;2.10;;;21.10;78.80;;;;;;5057156;28;20033;-29
2021/07/18 07:38:35;;;;;;;2.08;1.98;;;21.10;78.50;;;;;;5061293;28;20401;-35
2021/07/18 07:41:00;;;;;;;2.35;2.25;;;21.10;78.40;;;;;;5060766;28;20133;-33
2021/07/18 07:43:26;;;;;;;2.15;2.05;;;21.10;78.90;;;;;;5069413;28;20017;-32
2021/07/18 07:45:52;;;;;;;3.30;1.83;;;21.20;78.60;;;;;;5067230;28;20024;-30
2021/07/18 07:48:18;;;;;;;2.55;2.35;;;21.20;79.20;;;;;;5069745;28;20485;-26
2021/07/18 07:50:43;;;;;;;2.40;2.20;;;21.40;79.00;;;;;;5068532;28;20078;-30
2021/07/18 07:53:09;;;;;;;1.77;1.67;;;21.40;78.40;;;;;;5069427;28;20066;-30
2021/07/18 07:55:35;;;;;;;2.30;2.10;;;21.50;78.70;;;;;;5064982;28;20083;-30
2021/07/18 07:58:01;;;;;;;2.42;2.22;;;21.50;78.50;;;;;;5065554;28;20503;-28
2021/07/18 08:00:26;;;;;;;2.10;2.00;;;21.70;78.20;;;;;;5067882;28;20585;-33
2021/07/18 08:02:52;;;;;;;2.10;1.90;;;21.70;78.00;;;;;;5062026;28;20111;-30
2021/07/18 08:05:18;;;;;;;2.00;1.90;;;21.70;77.30;;;;;;5061610;28;20029;-30
2021/07/18 08:07:44;;;;;;;1.92;1.83;;;21.80;77.00;;;;;;5063747;28;20060;-26
2021/07/18 08:10:11;;;;;;;1.83;1.73;;;21.90;76.50;;;;;;5066522;28;20115;-28
2021/07/18 08:12:37;;;;;;;1.80;1.70;;;21.90;76.70;;;;;;5059375;28;20500;-31
2021/07/18 08:15:04;;;;;;;2.38;2.13;;;21.90;76.70;;;;;;5064022;28;20391;-30
2021/07/18 08:17:30;;;;;;;2.47;1.83;;;21.90;76.40;;;;;;5057988;28;20033;-34
2021/07/18 08:19:55;;;;;;;1.92;1.75;;;21.90;77.80;;;;;;5064754;28;20027;-30
2021/07/18 08:22:22;;;;;;;3.47;2.08;;;21.90;76.80;;;;;;5045215;28;20076;-31
2021/07/18 08:24:48;;;;;;;2.08;1.90;;;22.10;76.70;;;;;;5068463;28;20436;-33
2021/07/18 08:27:13;;;;;;;1.77;1.67;;;22.20;75.80;;;;;;5067362;28;20031;-29
2021/07/18 08:29:39;;;;;;;2.00;1.77;;;22.20;75.90;;;;;;5065005;28;20020;-30
2021/07/18 08:32:05;;;;;;;1.95;1.85;;;22.10;76.20;;;;;;5067309;28;20033;-31
2021/07/18 08:34:31;;;;;;;1.90;1.80;;;22.10;77.00;;;;;;5064091;28;20505;-30
2021/07/18 08:36:57;;;;;;;2.03;1.70;;;22.10;76.40;;;;;;5069343;28;20048;-28
2021/07/18 08:39:23;;;;;;;2.08;1.90;;;22.10;75.70;;;;;;5063899;28;20037;-30
2021/07/18 08:41:50;;;;;;;2.20;2.10;;;22.20;75.90;;;;;;5063234;28;20034;-32
2021/07/18 08:44:16;;;;;;;2.60;2.28;;;22.20;76.20;;;;;;5048960;28;20048;-35
2021/07/18 08:46:42;;;;;;;2.20;2.00;;;22.20;76.10;;;;;;5044408;28;20051;-34
2021/07/18 08:49:13;;;;;;;3.63;1.88;;;22.20;75.70;;;;;;5046968;28;20767;-36
2021/07/18 08:51:39;;;;;;;1.48;1.38;;;22.20;75.80;;;;;;5059342;28;20032;-35
2021/07/18 08:54:05;;;;;;;2.17;1.92;;;22.20;75.70;;;;;;5064200;28;20032;-33
2021/07/18 08:56:35;;;;;;;1.92;1.83;;;22.30;75.40;;;;;;5044678;28;20488;-28
2021/07/18 08:59:10;;;;;;;2.00;1.88;;;22.30;75.20;;;;;;5062296;28;20028;-31
2021/07/18 09:01:47;;;;;;;2.10;1.98;;;22.30;75.20;;;;;;5059038;28;20036;-30
2021/07/18 09:04:13;;;;;;;1.80;1.70;;;22.30;75.20;;;;;;5011392;28;20068;-30
2021/07/18 09:06:46;;;;;;;1.50;1.50;;;22.30;75.20;;;;;;5050665;28;20032;-39
2021/07/18 09:09:16;;;;;;;2.22;2.03;;;22.30;75.20;;;;;;5065962;28;20028;-32
2021/07/18 09:11:43;;;;;;;1.98;1.88;;;22.40;75.00;;;;;;5068496;28;20052;-39
2021/07/18 09:14:11;;;;;;;1.85;1.70;;;22.40;74.90;;;;;;5065383;28;20036;-31
2021/07/18 09:16:38;;;;;;;2.10;1.90;;;22.40;75.10;;;;;;5069537;28;20058;-31
2021/07/18 09:19:14;;;;;;;1.92;1.80;;;22.40;75.20;;;;;;5067095;28;20028;-31
2021/07/18 09:21:39;;;;;;;1.88;1.77;;;22.40;74.90;;;;;;5067173;28;20131;-30
2021/07/18 09:24:26;;;;;;;1.65;1.55;;;22.40;74.80;;;;;;5046683;28;20081;-33
2021/07/18 09:27:15;;;;;;;3.05;1.67;;;22.30;74.80;;;;;;5066152;28;20032;-29
2021/07/18 09:29:52;;;;;;;1.90;1.80;;;22.30;74.80;;;;;;5063791;28;20024;-33
2021/07/18 09:32:26;;;;;;;2.00;1.90;;;22.30;74.50;;;;;;5067013;28;20568;-32
2021/07/18 09:34:52;;;;;;;;;;;22.40;74.50;;;;;;5066774;28;20036;-30
2021/07/18 09:37:22;;;;;;;1.80;1.70;;;22.40;74.20;;;;;;5067625;28;19922;-28
2021/07/18 09:39:58;;;;;;;1.95;1.85;;;22.40;74.20;;;;;;5065484;28;21348;-27
2021/07/18 09:42:45;;;;;;;1.65;1.55;;;22.40;74.20;;;;;;5065748;28;20045;-34
2021/07/18 09:45:22;;;;;;;2.00;1.90;;;22.40;74.00;;;;;;5064072;28;20451;-28
2021/07/18 09:48:03;;;;;;;2.13;1.95;;;22.40;74.10;;;;;;5065116;28;20643;-33
2021/07/18 09:50:33;;;;;;;2.20;1.73;;;22.50;74.50;;;;;;5063103;28;20093;-34
2021/07/18 09:53:18;;;;;;;2.80;1.80;;;22.50;74.90;;;;;;5067004;28;20033;-33
2021/07/18 09:56:08;;;;;;;3.58;1.70;;;22.40;74.70;;;;;;4697181;28;9999821;-29
2021/07/18 09:58:34;;;;;;;2.05;1.92;;;22.50;74.70;;;;;;5065514;28;20106;-30
2021/07/18 10:01:00;;;;;;;3.08;1.70;;;22.50;74.60;;;;;;5063726;28;20973;-33
2021/07/18 10:03:27;;;;;;;2.25;1.70;;;22.50;74.50;;;;;;5062508;28;20032;-33
2021/07/18 10:06:16;;;;;;;2.13;1.77;;;22.50;74.10;;;;;;5062571;28;20055;-32
2021/07/18 10:08:58;;;;;;;1.80;1.70;;;22.50;74.30;;;;;;5062347;28;20040;-33
2021/07/18 10:11:25;;;;;;;1.83;1.73;;;22.50;74.50;;;;;;5060638;28;20068;-43
2021/07/18 10:13:52;;;;;;;2.40;1.98;;;22.60;74.80;;;;;;5062598;28;20572;-32
2021/07/18 10:16:19;;;;;;;1.80;1.70;;;22.50;75.20;;;;;;5064122;28;20025;-34
2021/07/18 10:18:45;;;;;;;2.15;1.95;;;22.60;74.10;;;;;;5064250;28;20040;-31
2021/07/18 10:21:13;;;;;;;2.58;2.10;;;22.60;74.00;;;;;;5060565;28;20079;-30
2021/07/18 10:23:41;;;;;;;1.60;1.50;;;22.70;74.00;;;;;;5061231;28;20043;-29
2021/07/18 10:26:07;;;;;;;1.90;1.70;;;22.70;74.20;;;;;;5062899;28;20032;-30
2021/07/18 10:28:32;;;;;;;1.75;1.65;;;22.70;74.30;;;;;;5064743;28;20084;-29
2021/07/18 10:31:02;;;;;;;3.63;1.98;;;22.80;73.60;;;;;;5041943;28;20041;-32
2021/07/18 10:33:27;;;;;;;1.48;1.38;;;22.70;73.80;;;;;;5046998;28;20090;-31
2021/07/18 10:35:54;;;;;;;2.80;1.50;;;22.70;73.70;;;;;;5045082;28;20028;-33
2021/07/18 10:38:21;;;;;;;1.52;1.42;;;22.80;73.80;;;;;;5044984;28;20029;-29
2021/07/18 10:40:54;;;;;;;2.67;1.10;;;22.80;73.30;;;;;;5062647;28;20424;-33
2021/07/18 10:43:38;;;;;;;1.52;1.25;;;22.80;74.10;;;;;;5064175;28;20032;-31
2021/07/18 10:46:05;;;;;;;1.55;1.45;;;22.80;73.40;;;;;;5065003;28;20755;-33
2021/07/18 10:48:48;;;;;;;1.58;1.48;;;22.80;73.00;;;;;;5064376;28;20032;-34
2021/07/18 10:51:15;;;;;;;1.50;1.40;;;22.80;73.20;;;;;;5059283;28;20046;-30
2021/07/18 10:53:41;;;;;;;1.35;1.35;;;22.80;73.40;;;;;;5026545;28;20181;-33
2021/07/18 10:56:07;;;;;;;1.65;1.55;;;22.80;73.20;;;;;;5062468;28;20501;-30
2021/07/18 10:58:39;;;;;;;1.27;1.17;;;22.80;73.20;;;;;;5045376;28;20032;-27
2021/07/18 11:01:05;;;;;;;1.40;1.30;;;22.80;73.20;;;;;;5058881;28;20550;-28
2021/07/18 11:03:34;;;;;;;1.50;1.40;;;22.80;73.10;;;;;;5065824;28;20024;-29
2021/07/18 11:06:21;;;;;;;1.40;1.30;;;22.80;72.80;;;;;;5062501;28;20036;-35
2021/07/18 11:09:05;;;;;;;1.98;1.58;;;22.80;72.90;;;;;;5061413;28;20078;-39
2021/07/18 11:11:38;;;;;;;1.20;1.20;;;22.90;72.80;;;;;;5041382;28;20057;-37
2021/07/18 11:14:34;;;;;;;1.50;1.40;;;22.90;72.80;;;;;;5057244;28;20029;-32
2021/07/18 11:17:04;;;;;;;1.40;1.30;;;22.90;72.70;;;;;;5054024;28;20040;-33
2021/07/18 11:19:38;;;;;;;1.48;1.38;;;22.90;72.80;;;;;;5039979;28;20316;-31
2021/07/18 11:22:05;;;;;;;1.42;1.33;;;22.90;72.70;;;;;;5054749;28;20079;-27
2021/07/18 11:24:52;;;;;;;3.33;1.40;;;22.90;72.60;;;;;;5035367;28;20705;-28
2021/07/18 11:27:22;;;;;;;1.30;1.15;;;22.90;72.50;;;;;;5055196;28;20060;-34
2021/07/18 11:29:48;;;;;;;0.98;0.98;;;22.90;72.50;;;;;;5052053;28;20060;-27
2021/07/18 11:32:20;;;;;;;1.35;1.25;;;23.00;72.50;;;;;;5052705;28;20119;-31
2021/07/18 11:34:46;;;;;;;1.55;0.90;;;23.00;72.40;;;;;;5052027;28;20027;-35
2021/07/18 11:37:12;;;;;;;1.38;1.27;;;23.00;72.40;;;;;;5054848;28;20040;-33
2021/07/18 11:39:37;;;;;;;1.60;1.50;;;23.00;72.40;;;;;;5031409;28;20032;-28
2021/07/18 11:42:04;;;;;;;1.40;1.35;;;23.10;72.40;;;;;;5061286;28;20047;-29
2021/07/18 11:44:30;;;;;;;1.15;1.05;;;23.10;72.10;;;;;;5058048;28;20171;-35
2021/07/18 11:46:58;;;;;;;1.35;1.25;;;23.10;71.90;;;;;;5058487;28;20032;-35
2021/07/18 11:49:28;;;;;;;1.23;1.23;;;23.10;71.90;;;;;;5056298;28;20029;-29
2021/07/18 11:51:54;;;;;;;2.40;1.33;;;23.10;71.90;;;;;;5060722;28;20036;-31
2021/07/18 11:54:20;;;;;;;1.33;1.15;;;23.10;71.80;;;;;;5062811;28;20390;-35
2021/07/18 11:56:46;;;;;;;1.50;1.40;;;23.20;71.80;;;;;;5062525;28;20094;-31
2021/07/18 11:59:14;;;;;;;1.50;1.40;;;23.20;71.80;;;;;;5037292;28;20956;-33
2021/07/18 12:01:41;;;;;;;1.60;1.50;;;23.20;71.80;;;;;;5042445;28;20047;-30
2021/07/18 12:04:07;;;;;;;1.10;1.10;;;23.20;71.80;;;;;;5037445;28;20044;-36
2021/07/18 12:06:40;;;;;;;1.35;1.17;;;23.20;71.50;;;;;;5064421;28;20135;-31
2021/07/18 12:09:16;;;;;;;1.45;1.35;;;23.20;71.50;;;;;;5052451;28;20032;-32
2021/07/18 12:11:43;;;;;;;1.38;1.27;;;23.30;71.30;;;;;;5056625;28;20048;-34
2021/07/18 12:14:09;;;;;;;1.30;1.20;;;23.30;71.40;;;;;;5060606;28;20033;-29
2021/07/18 12:16:37;;;;;;;1.20;1.10;;;23.30;71.20;;;;;;5059157;28;20036;-32
2021/07/18 12:19:03;;;;;;;2.92;1.30;;;23.30;71.20;;;;;;5057501;28;20605;-32
2021/07/18 12:21:29;;;;;;;1.15;1.10;;;23.30;70.90;;;;;;5060743;28;20093;-31
2021/07/18 12:24:20;;;;;;;1.50;1.40;;;23.30;70.90;;;;;;5059456;28;20094;-34
2021/07/18 12:26:58;;;;;;;1.23;1.13;;;23.40;70.90;;;;;;5059854;28;20117;-32
2021/07/18 12:29:32;;;;;;;3.00;1.70;;;23.40;70.90;;;;;;5057411;28;20028;-33
2021/07/18 12:31:57;;;;;;;1.30;1.15;;;23.40;70.80;;;;;;5059019;28;20145;-32
2021/07/18 12:34:31;;;;;;;1.38;1.27;;;23.40;70.70;;;;;;5059034;28;20128;-35
2021/07/18 12:37:09;;;;;;;1.48;1.30;;;23.40;70.70;;;;;;4705798;28;10000359;-30
2021/07/18 12:39:36;;;;;;;1.35;1.25;;;23.40;70.50;;;;;;5056810;28;20120;-28
2021/07/18 12:42:11;;;;;;;1.40;1.30;;;23.50;70.60;;;;;;5043625;28;20051;-29
2021/07/18 12:44:43;;;;;;;1.38;1.27;;;23.50;70.90;;;;;;5042778;28;20052;-31
2021/07/18 12:47:33;;;;;;;2.63;1.38;;;23.50;70.60;;;;;;5043839;28;20074;-37
2021/07/18 12:50:10;;;;;;;1.20;1.10;;;23.50;70.50;;;;;;5056290;28;20086;-34